sensor_id;sensor_type;location;lat;lon;timestamp;pressure;altitude;pressure_sealevel;temperature;humidity
804;BME280;25687;49.976;8.240;2023-04-19T00:00:08;100879.88;;;9.19;100.00
804;BME280;25687;49.976;8.240;2023-04-19T00:02:34;100879.88;;;9.19;100.00
804;BME280;25687;49.976;8.240;2023-04-19T00:05:00;100875.56;;;9.22;100.00
804;BME280;25687;49.976;8.240;2023-04-19T00:07:25;100875.56;;;9.22;100.00
804;BME280;25687;49.976;8.240;2023-04-19T00:09:51;100876.09;;;9.30;100.00
804;BME280;25687;49.976;8.240;2023-04-19T00:12:16;100875.44;;;9.25;100.00
804;BME280;25687;49.976;8.240;2023-04-19T00:14:42;100875.28;;;9.28;100.00
804;BME280;25687;49.976;8.240;2023-04-19T00:17:07;100866.53;;;9.33;100.00
804;BME280;25687;49.976;8.240;2023-04-19T00:19:32;100868.22;;;9.34;100.00
804;BME280;25687;49.976;8.240;2023-04-19T00:21:57;100868.31;;;9.31;100.00
804;BME280;25687;49.976;8.240;2023-04-19T00:24:23;100870.66;;;9.37;100.00
804;BME280;25687;49.976;8.240;2023-04-19T00:26:48;100866.91;;;9.46;100.00
804;BME280;25687;49.976;8.240;2023-04-19T00:29:13;100867.75;;;9.47;100.00
804;BME280;25687;49.976;8.240;2023-04-19T00:31:38;100871.22;;;9.46;100.00
804;BME280;25687;49.976;8.240;2023-04-19T00:34:04;100861.59;;;9.51;100.00
804;BME280;25687;49.976;8.240;2023-04-19T00:36:30;100867.59;;;9.51;100.00
804;BME280;25687;49.976;8.240;2023-04-19T00:38:55;100868.50;;;9.50;100.00
804;BME280;25687;49.976;8.240;2023-04-19T00:41:20;100866.03;;;9.47;100.00
804;BME280;25687;49.976;8.240;2023-04-19T00:43:46;100865.13;;;9.48;100.00
804;BME280;25687;49.976;8.240;2023-04-19T00:46:13;100858.22;;;9.50;100.00
804;BME280;25687;49.976;8.240;2023-04-19T00:48:39;100852.19;;;9.51;100.00
804;BME280;25687;49.976;8.240;2023-04-19T00:51:04;100853.38;;;9.43;100.00
804;BME280;25687;49.976;8.240;2023-04-19T00:53:30;100850.69;;;9.46;100.00
804;BME280;25687;49.976;8.240;2023-04-19T00:55:56;100846.97;;;9.53;100.00
804;BME280;25687;49.976;8.240;2023-04-19T00:58:24;100859.22;;;9.68;100.00
804;BME280;25687;49.976;8.240;2023-04-19T01:00:49;100851.72;;;9.64;100.00
804;BME280;25687;49.976;8.240;2023-04-19T01:03:14;100850.44;;;9.52;100.00
804;BME280;25687;49.976;8.240;2023-04-19T01:05:41;100837.84;;;9.46;100.00
804;BME280;25687;49.976;8.240;2023-04-19T01:08:06;100842.03;;;9.48;100.00
804;BME280;25687;49.976;8.240;2023-04-19T01:10:32;100846.31;;;9.48;100.00
804;BME280;25687;49.976;8.240;2023-04-19T01:12:58;100849.78;;;9.47;100.00
804;BME280;25687;49.976;8.240;2023-04-19T01:15:23;100844.53;;;9.50;100.00
804;BME280;25687;49.976;8.240;2023-04-19T01:17:48;100840.16;;;9.52;100.00
804;BME280;25687;49.976;8.240;2023-04-19T01:20:14;100838.16;;;9.60;100.00
804;BME280;25687;49.976;8.240;2023-04-19T01:22:39;100835.81;;;9.54;100.00
804;BME280;25687;49.976;8.240;2023-04-19T01:25:05;100840.41;;;9.46;100.00
804;BME280;25687;49.976;8.240;2023-04-19T01:27:31;100839.59;;;9.45;100.00
804;BME280;25687;49.976;8.240;2023-04-19T01:29:56;100828.44;;;9.45;100.00
804;BME280;25687;49.976;8.240;2023-04-19T01:32:22;100836.66;;;9.55;100.00
804;BME280;25687;49.976;8.240;2023-04-19T01:34:49;100827.50;;;9.47;100.00
804;BME280;25687;49.976;8.240;2023-04-19T01:37:15;100832.47;;;9.52;100.00
804;BME280;25687;49.976;8.240;2023-04-19T01:39:40;100827.34;;;9.52;100.00
804;BME280;25687;49.976;8.240;2023-04-19T01:42:05;100825.81;;;9.46;100.00
804;BME280;25687;49.976;8.240;2023-04-19T01:44:30;100823.09;;;9.51;100.00
804;BME280;25687;49.976;8.240;2023-04-19T01:46:56;100827.09;;;9.58;100.00
804;BME280;25687;49.976;8.240;2023-04-19T01:49:21;100825.59;;;9.52;100.00
804;BME280;25687;49.976;8.240;2023-04-19T01:51:46;100813.69;;;9.50;100.00
804;BME280;25687;49.976;8.240;2023-04-19T01:54:11;100812.22;;;9.44;100.00
804;BME280;25687;49.976;8.240;2023-04-19T01:56:37;100811.56;;;9.39;100.00
804;BME280;25687;49.976;8.240;2023-04-19T01:59:02;100806.94;;;9.47;100.00
804;BME280;25687;49.976;8.240;2023-04-19T02:01:28;100815.28;;;9.54;100.00
804;BME280;25687;49.976;8.240;2023-04-19T02:03:53;100808.41;;;9.55;100.00
804;BME280;25687;49.976;8.240;2023-04-19T02:06:19;100809.66;;;9.44;100.00
804;BME280;25687;49.976;8.240;2023-04-19T02:08:44;100809.34;;;9.52;100.00
804;BME280;25687;49.976;8.240;2023-04-19T02:11:11;100801.00;;;9.47;100.00
804;BME280;25687;49.976;8.240;2023-04-19T02:13:38;100805.88;;;9.53;100.00
804;BME280;25687;49.976;8.240;2023-04-19T02:16:04;100792.34;;;9.49;100.00
804;BME280;25687;49.976;8.240;2023-04-19T02:18:30;100789.28;;;9.40;100.00
804;BME280;25687;49.976;8.240;2023-04-19T02:20:56;100797.94;;;9.37;100.00
804;BME280;25687;49.976;8.240;2023-04-19T02:23:21;100788.56;;;9.36;100.00
804;BME280;25687;49.976;8.240;2023-04-19T02:25:47;100798.00;;;9.35;100.00
804;BME280;25687;49.976;8.240;2023-04-19T02:28:12;100784.94;;;9.42;100.00
804;BME280;25687;49.976;8.240;2023-04-19T02:30:37;100796.31;;;9.34;100.00
804;BME280;25687;49.976;8.240;2023-04-19T02:33:02;100796.31;;;9.34;100.00
804;BME280;25687;49.976;8.240;2023-04-19T02:35:27;100784.16;;;9.40;100.00
804;BME280;25687;49.976;8.240;2023-04-19T02:37:53;100790.88;;;9.42;100.00
804;BME280;25687;49.976;8.240;2023-04-19T02:40:18;100787.97;;;9.29;100.00
804;BME280;25687;49.976;8.240;2023-04-19T02:42:43;100780.03;;;9.35;100.00
804;BME280;25687;49.976;8.240;2023-04-19T02:45:09;100788.06;;;9.26;100.00
804;BME280;25687;49.976;8.240;2023-04-19T02:47:34;100780.31;;;9.28;100.00
804;BME280;25687;49.976;8.240;2023-04-19T02:50:00;100785.44;;;9.28;100.00
804;BME280;25687;49.976;8.240;2023-04-19T02:52:26;100778.47;;;9.31;100.00
804;BME280;25687;49.976;8.240;2023-04-19T02:54:52;100783.56;;;9.33;100.00
804;BME280;25687;49.976;8.240;2023-04-19T02:57:17;100782.63;;;9.34;100.00
804;BME280;25687;49.976;8.240;2023-04-19T02:59:42;100778.47;;;9.31;100.00
804;BME280;25687;49.976;8.240;2023-04-19T03:02:07;100775.97;;;9.30;100.00
804;BME280;25687;49.976;8.240;2023-04-19T03:04:33;100770.66;;;9.34;100.00
804;BME280;25687;49.976;8.240;2023-04-19T03:06:58;100771.47;;;9.35;100.00
804;BME280;25687;49.976;8.240;2023-04-19T03:09:24;100771.72;;;9.29;100.00
804;BME280;25687;49.976;8.240;2023-04-19T03:11:49;100766.47;;;9.32;100.00
804;BME280;25687;49.976;8.240;2023-04-19T03:14:15;100769.16;;;9.29;100.00
804;BME280;25687;49.976;8.240;2023-04-19T03:16:40;100763.25;;;9.27;100.00
804;BME280;25687;49.976;8.240;2023-04-19T03:19:05;100762.22;;;9.31;100.00
804;BME280;25687;49.976;8.240;2023-04-19T03:21:31;100762.31;;;9.29;100.00
804;BME280;25687;49.976;8.240;2023-04-19T03:23:56;100753.56;;;9.33;100.00
804;BME280;25687;49.976;8.240;2023-04-19T03:26:21;100753.16;;;9.22;100.00
804;BME280;25687;49.976;8.240;2023-04-19T03:28:46;100754.59;;;9.29;100.00
804;BME280;25687;49.976;8.240;2023-04-19T03:31:12;100752.91;;;9.28;100.00
804;BME280;25687;49.976;8.240;2023-04-19T03:33:38;100757.16;;;9.29;100.00
804;BME280;25687;49.976;8.240;2023-04-19T03:36:03;100756.94;;;9.35;100.00
804;BME280;25687;49.976;8.240;2023-04-19T03:38:29;100755.56;;;9.27;100.00
804;BME280;25687;49.976;8.240;2023-04-19T03:40:54;100748.91;;;9.21;100.00
804;BME280;25687;49.976;8.240;2023-04-19T03:43:21;100747.00;;;9.26;100.00
804;BME280;25687;49.976;8.240;2023-04-19T03:45:46;100747.63;;;9.33;100.00
804;BME280;25687;49.976;8.240;2023-04-19T03:48:12;100748.91;;;9.43;100.00
804;BME280;25687;49.976;8.240;2023-04-19T03:50:37;100744.75;;;9.41;100.00
804;BME280;25687;49.976;8.240;2023-04-19T03:53:03;100747.53;;;9.34;100.00
804;BME280;25687;49.976;8.240;2023-04-19T03:55:29;100742.72;;;9.27;100.00
804;BME280;25687;49.976;8.240;2023-04-19T03:57:54;100737.44;;;9.30;100.00
804;BME280;25687;49.976;8.240;2023-04-19T04:00:20;100740.38;;;9.20;100.00
804;BME280;25687;49.976;8.240;2023-04-19T04:02:45;100737.84;;;9.19;100.00
804;BME280;25687;49.976;8.240;2023-04-19T04:05:10;100739.50;;;9.22;100.00
804;BME280;25687;49.976;8.240;2023-04-19T04:07:36;100736.72;;;9.26;100.00
804;BME280;25687;49.976;8.240;2023-04-19T04:10:01;100742.06;;;9.22;100.00
804;BME280;25687;49.976;8.240;2023-04-19T04:12:26;100736.44;;;9.12;100.00
804;BME280;25687;49.976;8.240;2023-04-19T04:14:51;100744.88;;;9.15;100.00
804;BME280;25687;49.976;8.240;2023-04-19T04:17:17;100743.72;;;9.23;100.00
804;BME280;25687;49.976;8.240;2023-04-19T04:19:42;100742.59;;;9.30;100.00
804;BME280;25687;49.976;8.240;2023-04-19T04:22:07;100748.56;;;9.30;100.00
804;BME280;25687;49.976;8.240;2023-04-19T04:24:39;100750.88;;;9.14;100.00
804;BME280;25687;49.976;8.240;2023-04-19T04:27:08;100746.81;;;9.09;100.00
804;BME280;25687;49.976;8.240;2023-04-19T04:29:38;100746.94;;;9.06;100.00
804;BME280;25687;49.976;8.240;2023-04-19T04:32:06;100749.44;;;9.07;100.00
804;BME280;25687;49.976;8.240;2023-04-19T04:34:33;100748.78;;;9.02;100.00
804;BME280;25687;49.976;8.240;2023-04-19T04:36:58;100750.56;;;9.00;100.00
804;BME280;25687;49.976;8.240;2023-04-19T04:39:23;100754.88;;;8.99;100.00
804;BME280;25687;49.976;8.240;2023-04-19T04:41:49;100755.53;;;9.04;100.00
804;BME280;25687;49.976;8.240;2023-04-19T04:44:15;100759.56;;;9.10;100.00
804;BME280;25687;49.976;8.240;2023-04-19T04:46:41;100753.84;;;9.03;100.00
804;BME280;25687;49.976;8.240;2023-04-19T04:49:06;100754.34;;;9.13;100.00
804;BME280;25687;49.976;8.240;2023-04-19T04:51:31;100758.03;;;9.06;100.00
804;BME280;25687;49.976;8.240;2023-04-19T04:53:56;100760.53;;;9.08;100.00
804;BME280;25687;49.976;8.240;2023-04-19T04:56:22;100757.94;;;9.09;100.00
804;BME280;25687;49.976;8.240;2023-04-19T04:58:47;100757.69;;;9.15;100.00
804;BME280;25687;49.976;8.240;2023-04-19T05:01:13;100753.22;;;9.20;100.00
804;BME280;25687;49.976;8.240;2023-04-19T05:03:38;100747.38;;;9.17;100.00
804;BME280;25687;49.976;8.240;2023-04-19T05:06:04;100748.09;;;9.20;100.00
804;BME280;25687;49.976;8.240;2023-04-19T05:08:29;100753.16;;;9.22;100.00
804;BME280;25687;49.976;8.240;2023-04-19T05:10:54;100753.75;;;9.29;100.00
804;BME280;25687;49.976;8.240;2023-04-19T05:13:19;100752.31;;;9.44;100.00
804;BME280;25687;49.976;8.240;2023-04-19T05:15:45;100741.22;;;9.43;100.00
804;BME280;25687;49.976;8.240;2023-04-19T05:18:10;100744.56;;;9.45;100.00
804;BME280;25687;49.976;8.240;2023-04-19T05:20:35;100746.28;;;9.45;100.00
804;BME280;25687;49.976;8.240;2023-04-19T05:23:01;100750.41;;;9.49;100.00
804;BME280;25687;49.976;8.240;2023-04-19T05:25:27;100742.72;;;9.49;100.00
804;BME280;25687;49.976;8.240;2023-04-19T05:27:53;100738.47;;;9.48;100.00
804;BME280;25687;49.976;8.240;2023-04-19T05:30:18;100742.00;;;9.45;100.00
804;BME280;25687;49.976;8.240;2023-04-19T05:32:44;100741.94;;;9.47;100.00
804;BME280;25687;49.976;8.240;2023-04-19T05:35:09;100745.38;;;9.46;100.00
804;BME280;25687;49.976;8.240;2023-04-19T05:37:35;100749.56;;;9.48;100.00
804;BME280;25687;49.976;8.240;2023-04-19T05:40:01;100742.50;;;9.53;100.00
804;BME280;25687;49.976;8.240;2023-04-19T05:42:29;100742.81;;;9.68;100.00
804;BME280;25687;49.976;8.240;2023-04-19T05:44:54;100746.34;;;9.65;100.00
804;BME280;25687;49.976;8.240;2023-04-19T05:47:20;100733.03;;;9.56;100.00
804;BME280;25687;49.976;8.240;2023-04-19T05:49:45;100737.13;;;9.60;100.00
804;BME280;25687;49.976;8.240;2023-04-19T05:52:10;100735.16;;;9.66;100.00
804;BME280;25687;49.976;8.240;2023-04-19T05:54:35;100735.88;;;9.70;100.00
804;BME280;25687;49.976;8.240;2023-04-19T05:57:02;100741.50;;;9.78;100.00
804;BME280;25687;49.976;8.240;2023-04-19T05:59:27;100738.06;;;9.79;100.00
804;BME280;25687;49.976;8.240;2023-04-19T06:01:52;100749.38;;;9.75;100.00
804;BME280;25687;49.976;8.240;2023-04-19T06:04:20;100741.25;;;9.84;100.00
804;BME280;25687;49.976;8.240;2023-04-19T06:06:45;100741.88;;;9.91;100.00
804;BME280;25687;49.976;8.240;2023-04-19T06:09:10;100739.09;;;9.96;100.00
804;BME280;25687;49.976;8.240;2023-04-19T06:11:37;100745.31;;;10.11;100.00
804;BME280;25687;49.976;8.240;2023-04-19T06:14:03;100734.91;;;10.34;100.00
804;BME280;25687;49.976;8.240;2023-04-19T06:16:29;100737.03;;;10.45;100.00
804;BME280;25687;49.976;8.240;2023-04-19T06:18:55;100740.03;;;10.55;100.00
804;BME280;25687;49.976;8.240;2023-04-19T06:21:20;100737.25;;;10.79;100.00
804;BME280;25687;49.976;8.240;2023-04-19T06:23:45;100736.16;;;10.85;100.00
804;BME280;25687;49.976;8.240;2023-04-19T06:26:11;100740.81;;;10.76;100.00
804;BME280;25687;49.976;8.240;2023-04-19T06:28:36;100747.03;;;10.52;100.00
804;BME280;25687;49.976;8.240;2023-04-19T06:31:01;100743.91;;;10.45;100.00
804;BME280;25687;49.976;8.240;2023-04-19T06:33:26;100744.53;;;10.50;100.00
804;BME280;25687;49.976;8.240;2023-04-19T06:35:52;100745.88;;;10.59;100.00
804;BME280;25687;49.976;8.240;2023-04-19T06:38:17;100744.16;;;10.59;100.00
804;BME280;25687;49.976;8.240;2023-04-19T06:40:42;100743.75;;;10.48;100.00
804;BME280;25687;49.976;8.240;2023-04-19T06:43:07;100750.31;;;10.55;100.00
804;BME280;25687;49.976;8.240;2023-04-19T06:45:33;100750.47;;;10.52;100.00
804;BME280;25687;49.976;8.240;2023-04-19T06:47:58;100745.50;;;10.47;100.00
804;BME280;25687;49.976;8.240;2023-04-19T06:50:23;100743.44;;;10.56;100.00
804;BME280;25687;49.976;8.240;2023-04-19T06:52:49;100750.47;;;10.52;100.00
804;BME280;25687;49.976;8.240;2023-04-19T06:55:14;100750.72;;;10.46;100.00
804;BME280;25687;49.976;8.240;2023-04-19T06:57:39;100749.47;;;10.34;100.00
804;BME280;25687;49.976;8.240;2023-04-19T07:00:07;100753.41;;;10.43;100.00
804;BME280;25687;49.976;8.240;2023-04-19T07:02:32;100749.06;;;10.45;100.00
804;BME280;25687;49.976;8.240;2023-04-19T07:04:57;100750.09;;;10.41;100.00
804;BME280;25687;49.976;8.240;2023-04-19T07:07:23;100753.03;;;10.31;100.00
804;BME280;25687;49.976;8.240;2023-04-19T07:09:48;100747.47;;;10.42;100.00
804;BME280;25687;49.976;8.240;2023-04-19T07:12:13;100746.75;;;10.58;100.00
804;BME280;25687;49.976;8.240;2023-04-19T07:14:38;100741.84;;;10.53;100.00
804;BME280;25687;49.976;8.240;2023-04-19T07:17:04;100740.50;;;10.44;100.00
804;BME280;25687;49.976;8.240;2023-04-19T07:19:30;100741.34;;;10.45;100.00
804;BME280;25687;49.976;8.240;2023-04-19T07:21:55;100734.19;;;10.52;100.00
804;BME280;25687;49.976;8.240;2023-04-19T07:24:20;100742.91;;;10.68;100.00
804;BME280;25687;49.976;8.240;2023-04-19T07:26:46;100735.41;;;10.43;100.00
804;BME280;25687;49.976;8.240;2023-04-19T07:29:11;100739.53;;;10.47;100.00
804;BME280;25687;49.976;8.240;2023-04-19T07:31:36;100734.69;;;10.60;100.00
804;BME280;25687;49.976;8.240;2023-04-19T07:34:01;100739.13;;;10.75;100.00
804;BME280;25687;49.976;8.240;2023-04-19T07:36:27;100731.69;;;10.88;100.00
804;BME280;25687;49.976;8.240;2023-04-19T07:38:52;100731.63;;;10.90;100.00
804;BME280;25687;49.976;8.240;2023-04-19T07:41:17;100732.47;;;10.90;100.00
804;BME280;25687;49.976;8.240;2023-04-19T07:43:43;100722.59;;;10.81;100.00
804;BME280;25687;49.976;8.240;2023-04-19T07:46:12;100736.91;;;10.48;100.00
804;BME280;25687;49.976;8.240;2023-04-19T07:48:38;100729.31;;;10.45;100.00
804;BME280;25687;49.976;8.240;2023-04-19T07:51:10;100733.09;;;10.57;100.00
804;BME280;25687;49.976;8.240;2023-04-19T07:53:37;100719.59;;;10.52;100.00
804;BME280;25687;49.976;8.240;2023-04-19T07:56:03;100727.44;;;10.49;100.00
804;BME280;25687;49.976;8.240;2023-04-19T07:58:28;100727.03;;;10.58;100.00
804;BME280;25687;49.976;8.240;2023-04-19T08:00:54;100722.31;;;10.68;100.00
804;BME280;25687;49.976;8.240;2023-04-19T08:03:19;100715.34;;;10.70;100.00
804;BME280;25687;49.976;8.240;2023-04-19T08:05:46;100722.78;;;10.57;100.00
804;BME280;25687;49.976;8.240;2023-04-19T08:08:11;100714.25;;;10.57;100.00
804;BME280;25687;49.976;8.240;2023-04-19T08:10:36;100707.63;;;10.51;100.00
804;BME280;25687;49.976;8.240;2023-04-19T08:13:01;100711.69;;;10.76;100.00
804;BME280;25687;49.976;8.240;2023-04-19T08:15:27;100710.81;;;10.94;100.00
804;BME280;25687;49.976;8.240;2023-04-19T08:17:52;100704.50;;;11.02;100.00
804;BME280;25687;49.976;8.240;2023-04-19T08:20:17;100713.75;;;10.87;100.00
804;BME280;25687;49.976;8.240;2023-04-19T08:22:43;100705.94;;;11.07;100.00
804;BME280;25687;49.976;8.240;2023-04-19T08:25:09;100710.38;;;11.04;100.00
804;BME280;25687;49.976;8.240;2023-04-19T08:27:35;100703.72;;;11.36;100.00
804;BME280;25687;49.976;8.240;2023-04-19T08:30:00;100699.34;;;11.56;100.00
804;BME280;25687;49.976;8.240;2023-04-19T08:32:26;100703.91;;;11.86;100.00
804;BME280;25687;49.976;8.240;2023-04-19T08:34:51;100700.25;;;12.07;100.00
804;BME280;25687;49.976;8.240;2023-04-19T08:37:17;100698.84;;;12.18;100.00
804;BME280;25687;49.976;8.240;2023-04-19T08:39:42;100691.16;;;12.00;100.00
804;BME280;25687;49.976;8.240;2023-04-19T08:42:08;100693.72;;;11.83;100.00
804;BME280;25687;49.976;8.240;2023-04-19T08:44:35;100697.44;;;12.12;100.00
804;BME280;25687;49.976;8.240;2023-04-19T08:47:03;100705.72;;;11.84;100.00
804;BME280;25687;49.976;8.240;2023-04-19T08:49:28;100702.59;;;11.77;100.00
804;BME280;25687;49.976;8.240;2023-04-19T08:51:56;100693.06;;;12.30;100.00
804;BME280;25687;49.976;8.240;2023-04-19T08:54:22;100688.75;;;12.31;98.22
804;BME280;25687;49.976;8.240;2023-04-19T08:56:47;100691.06;;;12.19;100.00
804;BME280;25687;49.976;8.240;2023-04-19T08:59:13;100687.75;;;12.00;99.12
804;BME280;25687;49.976;8.240;2023-04-19T09:01:38;100685.78;;;12.05;99.02
804;BME280;25687;49.976;8.240;2023-04-19T09:04:05;100673.31;;;11.95;98.38
804;BME280;25687;49.976;8.240;2023-04-19T09:06:38;100673.88;;;12.02;97.57
804;BME280;25687;49.976;8.240;2023-04-19T09:09:20;100681.88;;;12.14;98.11
804;BME280;25687;49.976;8.240;2023-04-19T09:11:46;100679.00;;;12.36;96.89
804;BME280;25687;49.976;8.240;2023-04-19T09:14:16;100671.47;;;12.65;94.61
804;BME280;25687;49.976;8.240;2023-04-19T09:16:42;100673.47;;;12.75;96.15
804;BME280;25687;49.976;8.240;2023-04-19T09:19:08;100668.97;;;12.79;95.12
804;BME280;25687;49.976;8.240;2023-04-19T09:21:34;100669.34;;;12.87;93.85
804;BME280;25687;49.976;8.240;2023-04-19T09:24:00;100669.88;;;12.78;92.72
804;BME280;25687;49.976;8.240;2023-04-19T09:26:26;100669.63;;;12.83;92.58
804;BME280;25687;49.976;8.240;2023-04-19T09:29:06;100657.25;;;13.20;92.14
804;BME280;25687;49.976;8.240;2023-04-19T09:31:36;100677.13;;;13.50;90.13
804;BME280;25687;49.976;8.240;2023-04-19T09:34:12;100667.50;;;13.52;88.16
804;BME280;25687;49.976;8.240;2023-04-19T09:36:38;100664.72;;;13.40;88.50
804;BME280;25687;49.976;8.240;2023-04-19T09:39:03;100662.59;;;13.92;85.66
804;BME280;25687;49.976;8.240;2023-04-19T09:41:30;100659.06;;;13.79;84.64
804;BME280;25687;49.976;8.240;2023-04-19T09:44:09;100660.84;;;13.78;86.68
804;BME280;25687;49.976;8.240;2023-04-19T09:46:36;100654.34;;;13.71;85.49
804;BME280;25687;49.976;8.240;2023-04-19T09:51:45;100644.75;;;13.87;84.04
804;BME280;25687;49.976;8.240;2023-04-19T09:54:12;100640.91;;;14.51;78.99
804;BME280;25687;49.976;8.240;2023-04-19T09:56:38;100632.59;;;14.46;76.11
804;BME280;25687;49.976;8.240;2023-04-19T09:59:04;100640.97;;;14.08;78.60
804;BME280;25687;49.976;8.240;2023-04-19T10:01:34;100634.25;;;13.91;74.68
804;BME280;25687;49.976;8.240;2023-04-19T10:04:04;100633.28;;;13.92;75.36
804;BME280;25687;49.976;8.240;2023-04-19T10:06:31;100643.09;;;13.86;71.54
804;BME280;25687;49.976;8.240;2023-04-19T10:09:01;100633.00;;;13.53;76.48
804;BME280;25687;49.976;8.240;2023-04-19T10:11:31;100633.22;;;13.93;72.27
804;BME280;25687;49.976;8.240;2023-04-19T10:14:04;100615.84;;;14.66;71.22
804;BME280;25687;49.976;8.240;2023-04-19T10:16:29;100619.91;;;15.51;66.09
804;BME280;25687;49.976;8.240;2023-04-19T10:18:56;100626.16;;;15.87;57.49
804;BME280;25687;49.976;8.240;2023-04-19T10:21:21;100621.47;;;15.79;55.79
804;BME280;25687;49.976;8.240;2023-04-19T10:23:47;100624.56;;;14.92;59.81
804;BME280;25687;49.976;8.240;2023-04-19T10:26:13;100615.13;;;14.91;62.62
804;BME280;25687;49.976;8.240;2023-04-19T10:28:40;100608.59;;;16.03;57.49
804;BME280;25687;49.976;8.240;2023-04-19T10:31:10;100608.78;;;16.13;54.03
804;BME280;25687;49.976;8.240;2023-04-19T10:33:37;100609.31;;;16.05;53.06
804;BME280;25687;49.976;8.240;2023-04-19T10:36:03;100593.66;;;15.68;56.17
804;BME280;25687;49.976;8.240;2023-04-19T10:41:06;100603.66;;;14.68;59.78
804;BME280;25687;49.976;8.240;2023-04-19T10:43:46;100588.13;;;14.53;61.90
804;BME280;25687;49.976;8.240;2023-04-19T10:46:34;100607.97;;;14.40;61.53
804;BME280;25687;49.976;8.240;2023-04-19T10:49:01;100592.75;;;14.48;62.03
804;BME280;25687;49.976;8.240;2023-04-19T10:51:31;100614.38;;;14.06;63.42
804;BME280;25687;49.976;8.240;2023-04-19T10:53:59;100597.66;;;13.53;69.31
804;BME280;25687;49.976;8.240;2023-04-19T11:01:41;100592.22;;;13.87;63.64
804;BME280;25687;49.976;8.240;2023-04-19T11:04:10;100584.38;;;13.60;65.49
804;BME280;25687;49.976;8.240;2023-04-19T11:06:37;100588.34;;;13.51;64.28
804;BME280;25687;49.976;8.240;2023-04-19T11:09:03;100588.63;;;13.61;67.98
804;BME280;25687;49.976;8.240;2023-04-19T11:11:34;100573.69;;;13.21;65.53
804;BME280;25687;49.976;8.240;2023-04-19T11:14:03;100573.84;;;13.48;64.06
804;BME280;25687;49.976;8.240;2023-04-19T11:16:29;100579.28;;;13.58;63.69
804;BME280;25687;49.976;8.240;2023-04-19T11:18:54;100574.66;;;13.49;64.70
804;BME280;25687;49.976;8.240;2023-04-19T11:21:20;100579.38;;;13.42;63.68
804;BME280;25687;49.976;8.240;2023-04-19T11:23:45;100571.09;;;13.21;61.43
804;BME280;25687;49.976;8.240;2023-04-19T11:26:13;100574.91;;;13.30;60.36
804;BME280;25687;49.976;8.240;2023-04-19T11:28:38;100572.59;;;13.39;59.57
804;BME280;25687;49.976;8.240;2023-04-19T11:31:04;100567.97;;;13.30;60.61
804;BME280;25687;49.976;8.240;2023-04-19T11:33:34;100564.69;;;13.43;56.24
804;BME280;25687;49.976;8.240;2023-04-19T11:35:59;100567.38;;;13.55;53.71
804;BME280;25687;49.976;8.240;2023-04-19T11:38:29;100551.06;;;13.24;55.25
804;BME280;25687;49.976;8.240;2023-04-19T11:41:02;100560.66;;;13.37;55.45
804;BME280;25687;49.976;8.240;2023-04-19T11:43:32;100557.13;;;13.54;53.57
804;BME280;25687;49.976;8.240;2023-04-19T11:46:03;100543.38;;;13.82;52.85
804;BME280;25687;49.976;8.240;2023-04-19T11:48:29;100536.34;;;13.84;53.41
804;BME280;25687;49.976;8.240;2023-04-19T11:50:57;100545.88;;;13.69;52.04
804;BME280;25687;49.976;8.240;2023-04-19T11:53:23;100543.22;;;13.26;50.98
804;BME280;25687;49.976;8.240;2023-04-19T11:55:54;100549.22;;;13.27;50.36
804;BME280;25687;49.976;8.240;2023-04-19T11:58:39;100526.97;;;13.54;51.46
804;BME280;25687;49.976;8.240;2023-04-19T12:01:15;100530.81;;;13.62;48.33
804;BME280;25687;49.976;8.240;2023-04-19T12:03:53;100527.75;;;13.98;48.00
804;BME280;25687;49.976;8.240;2023-04-19T12:06:24;100516.97;;;13.77;47.47
804;BME280;25687;49.976;8.240;2023-04-19T12:08:52;100519.38;;;13.66;46.35
804;BME280;25687;49.976;8.240;2023-04-19T12:11:20;100529.25;;;13.45;47.12
804;BME280;25687;49.976;8.240;2023-04-19T12:13:47;100524.97;;;13.15;47.74
804;BME280;25687;49.976;8.240;2023-04-19T12:16:13;100520.34;;;13.34;48.27
804;BME280;25687;49.976;8.240;2023-04-19T12:18:45;100516.38;;;13.29;46.55
804;BME280;25687;49.976;8.240;2023-04-19T12:21:27;100528.81;;;13.22;45.67
804;BME280;25687;49.976;8.240;2023-04-19T12:23:56;100510.53;;;13.11;46.58
804;BME280;25687;49.976;8.240;2023-04-19T12:26:23;100505.56;;;13.07;47.24
804;BME280;25687;49.976;8.240;2023-04-19T12:28:48;100502.44;;;13.17;46.24
804;BME280;25687;49.976;8.240;2023-04-19T12:31:13;100501.09;;;13.40;46.02
804;BME280;25687;49.976;8.240;2023-04-19T12:33:39;100483.03;;;13.54;44.46
804;BME280;25687;49.976;8.240;2023-04-19T12:36:04;100484.31;;;13.89;44.24
804;BME280;25687;49.976;8.240;2023-04-19T12:38:29;100489.03;;;13.97;43.37
804;BME280;25687;49.976;8.240;2023-04-19T12:40:55;100483.91;;;13.68;43.15
804;BME280;25687;49.976;8.240;2023-04-19T12:43:20;100487.41;;;13.81;44.81
804;BME280;25687;49.976;8.240;2023-04-19T12:45:46;100480.72;;;13.92;45.54
804;BME280;25687;49.976;8.240;2023-04-19T12:48:11;100476.31;;;14.21;45.03
804;BME280;25687;49.976;8.240;2023-04-19T12:50:36;100486.91;;;14.31;43.11
804;BME280;25687;49.976;8.240;2023-04-19T12:53:02;100486.16;;;14.01;44.22
804;BME280;25687;49.976;8.240;2023-04-19T12:55:27;100475.53;;;14.06;42.48
804;BME280;25687;49.976;8.240;2023-04-19T12:57:52;100470.88;;;14.11;41.42
804;BME280;25687;49.976;8.240;2023-04-19T13:00:18;100468.59;;;14.07;41.44
804;BME280;25687;49.976;8.240;2023-04-19T13:02:43;100477.28;;;14.06;41.38
804;BME280;25687;49.976;8.240;2023-04-19T13:05:08;100460.91;;;14.05;41.28
804;BME280;25687;49.976;8.240;2023-04-19T13:07:34;100462.47;;;14.08;41.05
804;BME280;25687;49.976;8.240;2023-04-19T13:09:59;100449.94;;;14.01;40.23
804;BME280;25687;49.976;8.240;2023-04-19T13:12:24;100457.47;;;14.19;40.60